Strona główna
METAR-TAF:

METAR-TAF

Lotnisko :

Ipatinga, Minas Gerais, Brazylia

Szerokość geograficzna: 19-28-14S, Długość geograficzna: 042-29-17W, wysokość: 239 m

Aktualna obserwacja pogody

Raport powstał 17 godziny i 51 minut temu, godzina 17:00 UTC
Wiatr 5 kt od wschodnio-północny wschód
Temperatura 30°C
Wilgotność 66%
Ciśnienie 1013 hPa
Widzialność 10 km lub więcej
Mało chmury na wysokości 2500 ft
Przerywane chmury na wysokości 4000 ft

METAR: SBIP 021700Z 06005KT 9999 FEW025 BKN040 30/23 Q1013

czas: 07:51 (10:51 UTC)


TAF: brakujący

Obserwacja i prognoza pogody dla ponad 4000 lotnisk (raport METAR i TAF).

Dostępne stacje oznaczono żółtymi i czerwonymi punktami na mapie.

Najedź kursorem aby zobaczyć nazwę stacji.

Kliknij aby zobaczyć obserwacje i prognozy pogody.

Aby zmienić mapę: kliknij na zielony przycisk z czarnym krzyżykiem, aby powiększyć; na zielony przycisk z myślnikiem, aby pomniejszyć; na zielone strzałki, aby przejść do map sąsiednich.


METAR-TAF: